sensor_id;sensor_type;location;lat;lon;timestamp;P1;durP1;ratioP1;P2;durP2;ratioP2
2201;SDS011;1107;48.654;9.250;2023-06-01T00:02:20;5.40;;;5.10;;
2201;SDS011;1107;48.654;9.250;2023-06-01T00:04:47;7.27;;;5.53;;
2201;SDS011;1107;48.654;9.250;2023-06-01T00:07:15;6.17;;;5.73;;
2201;SDS011;1107;48.654;9.250;2023-06-01T00:09:44;6.33;;;5.83;;
2201;SDS011;1107;48.654;9.250;2023-06-01T00:12:11;12.70;;;5.60;;
2201;SDS011;1107;48.654;9.250;2023-06-01T00:14:37;7.03;;;4.90;;
2201;SDS011;1107;48.654;9.250;2023-06-01T00:17:05;6.20;;;5.70;;
2201;SDS011;1107;48.654;9.250;2023-06-01T00:19:32;5.70;;;5.20;;
2201;SDS011;1107;48.654;9.250;2023-06-01T00:22:00;7.10;;;5.20;;
2201;SDS011;1107;48.654;9.250;2023-06-01T00:24:27;8.83;;;7.00;;
2201;SDS011;1107;48.654;9.250;2023-06-01T00:26:56;10.73;;;5.63;;
2201;SDS011;1107;48.654;9.250;2023-06-01T00:29:23;6.07;;;5.67;;
2201;SDS011;1107;48.654;9.250;2023-06-01T00:31:49;5.97;;;5.57;;
2201;SDS011;1107;48.654;9.250;2023-06-01T00:34:16;5.90;;;5.60;;
2201;SDS011;1107;48.654;9.250;2023-06-01T00:36:43;9.40;;;6.00;;
2201;SDS011;1107;48.654;9.250;2023-06-01T00:39:10;5.33;;;5.03;;
2201;SDS011;1107;48.654;9.250;2023-06-01T00:41:37;5.90;;;5.50;;
2201;SDS011;1107;48.654;9.250;2023-06-01T00:44:05;7.70;;;5.80;;
2201;SDS011;1107;48.654;9.250;2023-06-01T00:46:33;17.67;;;7.07;;
2201;SDS011;1107;48.654;9.250;2023-06-01T00:49:00;8.60;;;6.60;;
2201;SDS011;1107;48.654;9.250;2023-06-01T00:51:27;15.70;;;6.07;;
2201;SDS011;1107;48.654;9.250;2023-06-01T00:53:53;5.50;;;5.20;;
2201;SDS011;1107;48.654;9.250;2023-06-01T00:56:21;6.20;;;5.90;;
2201;SDS011;1107;48.654;9.250;2023-06-01T00:58:48;7.40;;;6.70;;
2201;SDS011;1107;48.654;9.250;2023-06-01T01:01:17;6.30;;;5.70;;
2201;SDS011;1107;48.654;9.250;2023-06-01T01:03:48;6.67;;;6.07;;
2201;SDS011;1107;48.654;9.250;2023-06-01T01:06:25;6.47;;;6.07;;
2201;SDS011;1107;48.654;9.250;2023-06-01T01:09:01;9.50;;;6.10;;
2201;SDS011;1107;48.654;9.250;2023-06-01T01:11:39;7.30;;;6.30;;
2201;SDS011;1107;48.654;9.250;2023-06-01T01:14:11;6.10;;;5.10;;
2201;SDS011;1107;48.654;9.250;2023-06-01T01:16:45;5.97;;;5.17;;
2201;SDS011;1107;48.654;9.250;2023-06-01T01:19:20;7.23;;;6.27;;
2201;SDS011;1107;48.654;9.250;2023-06-01T01:22:04;6.17;;;5.80;;
2201;SDS011;1107;48.654;9.250;2023-06-01T01:24:43;6.13;;;5.73;;
2201;SDS011;1107;48.654;9.250;2023-06-01T01:27:22;5.90;;;5.60;;
2201;SDS011;1107;48.654;9.250;2023-06-01T01:29:59;7.10;;;6.40;;
2201;SDS011;1107;48.654;9.250;2023-06-01T01:32:30;7.33;;;6.07;;
2201;SDS011;1107;48.654;9.250;2023-06-01T01:35:00;12.13;;;6.30;;
2201;SDS011;1107;48.654;9.250;2023-06-01T01:37:29;6.80;;;6.23;;
2201;SDS011;1107;48.654;9.250;2023-06-01T01:39:56;20.97;;;6.40;;
2201;SDS011;1107;48.654;9.250;2023-06-01T01:42:23;6.83;;;6.20;;
2201;SDS011;1107;48.654;9.250;2023-06-01T01:44:50;6.97;;;5.90;;
2201;SDS011;1107;48.654;9.250;2023-06-01T01:47:19;6.50;;;6.10;;
2201;SDS011;1107;48.654;9.250;2023-06-01T01:49:56;6.77;;;6.27;;
2201;SDS011;1107;48.654;9.250;2023-06-01T01:52:32;9.80;;;7.00;;
2201;SDS011;1107;48.654;9.250;2023-06-01T01:55:00;5.70;;;5.40;;
2201;SDS011;1107;48.654;9.250;2023-06-01T01:57:29;12.07;;;6.20;;
2201;SDS011;1107;48.654;9.250;2023-06-01T01:59:58;8.20;;;6.40;;
2201;SDS011;1107;48.654;9.250;2023-06-01T02:02:26;7.83;;;6.43;;
2201;SDS011;1107;48.654;9.250;2023-06-01T02:04:54;6.93;;;5.87;;
2201;SDS011;1107;48.654;9.250;2023-06-01T02:07:21;6.03;;;5.53;;
2201;SDS011;1107;48.654;9.250;2023-06-01T02:09:48;11.27;;;5.57;;
2201;SDS011;1107;48.654;9.250;2023-06-01T02:12:16;7.53;;;5.60;;
2201;SDS011;1107;48.654;9.250;2023-06-01T02:14:43;7.87;;;5.73;;
2201;SDS011;1107;48.654;9.250;2023-06-01T02:17:10;9.17;;;6.03;;
2201;SDS011;1107;48.654;9.250;2023-06-01T02:19:41;6.57;;;6.17;;
2201;SDS011;1107;48.654;9.250;2023-06-01T02:22:09;5.57;;;5.27;;
2201;SDS011;1107;48.654;9.250;2023-06-01T02:24:36;9.70;;;5.73;;
2201;SDS011;1107;48.654;9.250;2023-06-01T02:27:03;8.93;;;5.93;;
2201;SDS011;1107;48.654;9.250;2023-06-01T02:29:30;11.93;;;5.93;;
2201;SDS011;1107;48.654;9.250;2023-06-01T02:31:57;5.50;;;5.20;;
2201;SDS011;1107;48.654;9.250;2023-06-01T02:34:24;5.47;;;5.17;;
2201;SDS011;1107;48.654;9.250;2023-06-01T02:36:52;5.83;;;5.33;;
2201;SDS011;1107;48.654;9.250;2023-06-01T02:39:20;12.37;;;6.33;;
2201;SDS011;1107;48.654;9.250;2023-06-01T02:41:47;6.50;;;6.10;;
2201;SDS011;1107;48.654;9.250;2023-06-01T02:44:14;5.43;;;5.13;;
2201;SDS011;1107;48.654;9.250;2023-06-01T02:46:42;8.80;;;5.27;;
2201;SDS011;1107;48.654;9.250;2023-06-01T02:49:09;6.60;;;6.20;;
2201;SDS011;1107;48.654;9.250;2023-06-01T02:51:36;7.00;;;6.47;;
2201;SDS011;1107;48.654;9.250;2023-06-01T02:54:04;6.90;;;6.57;;
2201;SDS011;1107;48.654;9.250;2023-06-01T02:56:31;6.93;;;6.40;;
2201;SDS011;1107;48.654;9.250;2023-06-01T02:58:58;6.70;;;6.30;;
2201;SDS011;1107;48.654;9.250;2023-06-01T03:01:25;7.20;;;6.53;;
2201;SDS011;1107;48.654;9.250;2023-06-01T03:03:52;9.07;;;6.90;;
2201;SDS011;1107;48.654;9.250;2023-06-01T03:06:19;18.53;;;6.97;;
2201;SDS011;1107;48.654;9.250;2023-06-01T03:08:47;7.77;;;7.17;;
2201;SDS011;1107;48.654;9.250;2023-06-01T03:11:16;6.60;;;6.10;;
2201;SDS011;1107;48.654;9.250;2023-06-01T03:13:43;7.73;;;7.00;;
2201;SDS011;1107;48.654;9.250;2023-06-01T03:16:10;7.40;;;6.80;;
2201;SDS011;1107;48.654;9.250;2023-06-01T03:18:37;7.03;;;6.53;;
2201;SDS011;1107;48.654;9.250;2023-06-01T03:21:04;6.83;;;6.23;;
2201;SDS011;1107;48.654;9.250;2023-06-01T03:23:31;7.30;;;6.60;;
2201;SDS011;1107;48.654;9.250;2023-06-01T03:25:58;6.20;;;5.80;;
2201;SDS011;1107;48.654;9.250;2023-06-01T03:28:26;7.33;;;6.60;;
2201;SDS011;1107;48.654;9.250;2023-06-01T03:30:53;7.13;;;6.73;;
2201;SDS011;1107;48.654;9.250;2023-06-01T03:33:21;6.50;;;6.00;;
2201;SDS011;1107;48.654;9.250;2023-06-01T03:35:48;7.20;;;6.60;;
2201;SDS011;1107;48.654;9.250;2023-06-01T03:38:15;7.33;;;6.73;;
2201;SDS011;1107;48.654;9.250;2023-06-01T03:40:42;7.80;;;7.03;;
2201;SDS011;1107;48.654;9.250;2023-06-01T03:43:09;6.93;;;6.40;;
2201;SDS011;1107;48.654;9.250;2023-06-01T03:45:38;16.00;;;6.27;;
2201;SDS011;1107;48.654;9.250;2023-06-01T03:48:05;7.23;;;6.57;;
2201;SDS011;1107;48.654;9.250;2023-06-01T03:50:33;6.37;;;5.80;;
2201;SDS011;1107;48.654;9.250;2023-06-01T03:53:00;6.40;;;6.00;;
2201;SDS011;1107;48.654;9.250;2023-06-01T03:55:27;7.30;;;6.50;;
2201;SDS011;1107;48.654;9.250;2023-06-01T03:57:55;5.70;;;5.07;;
2201;SDS011;1107;48.654;9.250;2023-06-01T04:00:23;6.70;;;5.73;;
2201;SDS011;1107;48.654;9.250;2023-06-01T04:02:51;5.87;;;5.43;;
2201;SDS011;1107;48.654;9.250;2023-06-01T04:05:20;11.63;;;6.20;;
2201;SDS011;1107;48.654;9.250;2023-06-01T04:07:48;11.43;;;5.43;;
2201;SDS011;1107;48.654;9.250;2023-06-01T04:10:16;7.50;;;4.80;;
2201;SDS011;1107;48.654;9.250;2023-06-01T04:12:44;7.83;;;6.13;;
2201;SDS011;1107;48.654;9.250;2023-06-01T04:15:12;5.63;;;5.13;;
2201;SDS011;1107;48.654;9.250;2023-06-01T04:17:41;10.23;;;6.00;;
2201;SDS011;1107;48.654;9.250;2023-06-01T04:20:11;6.30;;;5.70;;
2201;SDS011;1107;48.654;9.250;2023-06-01T04:22:39;6.90;;;6.30;;
2201;SDS011;1107;48.654;9.250;2023-06-01T04:25:07;11.20;;;6.40;;
2201;SDS011;1107;48.654;9.250;2023-06-01T04:27:36;12.37;;;7.30;;
2201;SDS011;1107;48.654;9.250;2023-06-01T04:30:04;12.10;;;6.17;;
2201;SDS011;1107;48.654;9.250;2023-06-01T04:32:33;6.80;;;5.53;;
2201;SDS011;1107;48.654;9.250;2023-06-01T04:35:03;8.33;;;5.60;;
2201;SDS011;1107;48.654;9.250;2023-06-01T04:37:32;8.20;;;5.90;;
2201;SDS011;1107;48.654;9.250;2023-06-01T04:40:00;10.30;;;6.73;;
2201;SDS011;1107;48.654;9.250;2023-06-01T04:42:31;7.10;;;5.90;;
2201;SDS011;1107;48.654;9.250;2023-06-01T04:44:58;6.50;;;5.90;;
2201;SDS011;1107;48.654;9.250;2023-06-01T04:47:26;7.40;;;6.90;;
2201;SDS011;1107;48.654;9.250;2023-06-01T04:49:53;6.83;;;5.67;;
2201;SDS011;1107;48.654;9.250;2023-06-01T04:52:21;7.90;;;7.40;;
2201;SDS011;1107;48.654;9.250;2023-06-01T04:54:49;7.63;;;6.93;;
2201;SDS011;1107;48.654;9.250;2023-06-01T04:57:16;7.97;;;7.37;;
2201;SDS011;1107;48.654;9.250;2023-06-01T04:59:44;8.60;;;8.03;;
2201;SDS011;1107;48.654;9.250;2023-06-01T05:02:11;7.57;;;7.17;;
2201;SDS011;1107;48.654;9.250;2023-06-01T05:04:38;9.03;;;8.30;;
2201;SDS011;1107;48.654;9.250;2023-06-01T05:07:05;8.17;;;7.20;;
2201;SDS011;1107;48.654;9.250;2023-06-01T05:09:32;8.17;;;7.60;;
2201;SDS011;1107;48.654;9.250;2023-06-01T05:12:01;8.17;;;7.23;;
2201;SDS011;1107;48.654;9.250;2023-06-01T05:14:28;7.87;;;7.30;;
2201;SDS011;1107;48.654;9.250;2023-06-01T05:16:55;8.00;;;7.50;;
2201;SDS011;1107;48.654;9.250;2023-06-01T05:19:21;7.47;;;7.03;;
2201;SDS011;1107;48.654;9.250;2023-06-01T05:21:48;8.57;;;7.60;;
2201;SDS011;1107;48.654;9.250;2023-06-01T05:24:15;9.00;;;8.30;;
2201;SDS011;1107;48.654;9.250;2023-06-01T05:26:42;7.50;;;7.00;;
2201;SDS011;1107;48.654;9.250;2023-06-01T05:29:10;10.20;;;8.17;;
2201;SDS011;1107;48.654;9.250;2023-06-01T05:31:37;8.00;;;7.60;;
2201;SDS011;1107;48.654;9.250;2023-06-01T05:34:05;7.87;;;7.37;;
2201;SDS011;1107;48.654;9.250;2023-06-01T05:36:32;13.47;;;8.37;;
2201;SDS011;1107;48.654;9.250;2023-06-01T05:39:00;7.90;;;7.20;;
2201;SDS011;1107;48.654;9.250;2023-06-01T05:41:27;8.40;;;7.90;;
2201;SDS011;1107;48.654;9.250;2023-06-01T05:43:54;10.40;;;8.17;;
2201;SDS011;1107;48.654;9.250;2023-06-01T05:46:22;8.30;;;7.70;;
2201;SDS011;1107;48.654;9.250;2023-06-01T05:48:49;8.30;;;7.60;;
2201;SDS011;1107;48.654;9.250;2023-06-01T05:51:16;8.20;;;7.50;;
2201;SDS011;1107;48.654;9.250;2023-06-01T05:53:44;8.17;;;7.37;;
2201;SDS011;1107;48.654;9.250;2023-06-01T05:56:11;7.67;;;7.07;;
2201;SDS011;1107;48.654;9.250;2023-06-01T05:58:38;7.27;;;6.87;;
2201;SDS011;1107;48.654;9.250;2023-06-01T06:01:05;6.20;;;5.70;;
2201;SDS011;1107;48.654;9.250;2023-06-01T06:03:33;7.73;;;6.40;;
2201;SDS011;1107;48.654;9.250;2023-06-01T06:06:00;8.47;;;7.30;;
2201;SDS011;1107;48.654;9.250;2023-06-01T06:08:27;8.13;;;7.43;;
2201;SDS011;1107;48.654;9.250;2023-06-01T06:10:54;7.90;;;7.30;;
2201;SDS011;1107;48.654;9.250;2023-06-01T06:13:21;11.20;;;7.53;;
2201;SDS011;1107;48.654;9.250;2023-06-01T06:15:48;8.10;;;7.37;;
2201;SDS011;1107;48.654;9.250;2023-06-01T06:18:15;7.90;;;7.20;;
2201;SDS011;1107;48.654;9.250;2023-06-01T06:20:45;7.37;;;6.97;;
2201;SDS011;1107;48.654;9.250;2023-06-01T06:23:13;7.30;;;6.90;;
2201;SDS011;1107;48.654;9.250;2023-06-01T06:25:40;7.53;;;6.97;;
2201;SDS011;1107;48.654;9.250;2023-06-01T06:28:07;8.20;;;6.40;;
2201;SDS011;1107;48.654;9.250;2023-06-01T06:30:34;20.33;;;8.33;;
2201;SDS011;1107;48.654;9.250;2023-06-01T06:33:01;6.90;;;6.50;;
2201;SDS011;1107;48.654;9.250;2023-06-01T06:35:28;7.10;;;6.43;;
2201;SDS011;1107;48.654;9.250;2023-06-01T06:37:56;8.83;;;6.53;;
2201;SDS011;1107;48.654;9.250;2023-06-01T06:40:23;6.80;;;6.30;;
2201;SDS011;1107;48.654;9.250;2023-06-01T06:42:50;6.90;;;6.30;;
2201;SDS011;1107;48.654;9.250;2023-06-01T06:45:17;9.50;;;6.27;;
2201;SDS011;1107;48.654;9.250;2023-06-01T06:47:44;9.90;;;6.10;;
2201;SDS011;1107;48.654;9.250;2023-06-01T06:50:12;6.80;;;6.23;;
2201;SDS011;1107;48.654;9.250;2023-06-01T06:52:39;7.00;;;6.50;;
2201;SDS011;1107;48.654;9.250;2023-06-01T06:55:08;16.93;;;6.43;;
2201;SDS011;1107;48.654;9.250;2023-06-01T06:57:35;6.47;;;5.97;;
2201;SDS011;1107;48.654;9.250;2023-06-01T07:00:05;8.13;;;5.97;;
2201;SDS011;1107;48.654;9.250;2023-06-01T07:02:34;6.53;;;6.07;;
2201;SDS011;1107;48.654;9.250;2023-06-01T07:05:01;6.07;;;5.67;;
2201;SDS011;1107;48.654;9.250;2023-06-01T07:07:29;10.83;;;5.37;;
2201;SDS011;1107;48.654;9.250;2023-06-01T07:09:56;6.27;;;5.87;;
2201;SDS011;1107;48.654;9.250;2023-06-01T07:12:24;6.33;;;5.73;;
2201;SDS011;1107;48.654;9.250;2023-06-01T07:14:51;6.53;;;6.20;;
2201;SDS011;1107;48.654;9.250;2023-06-01T07:17:18;6.60;;;6.10;;
2201;SDS011;1107;48.654;9.250;2023-06-01T07:19:45;6.03;;;5.73;;
2201;SDS011;1107;48.654;9.250;2023-06-01T07:22:12;5.70;;;5.40;;
2201;SDS011;1107;48.654;9.250;2023-06-01T07:24:39;6.23;;;5.87;;
2201;SDS011;1107;48.654;9.250;2023-06-01T07:27:06;6.43;;;5.93;;
2201;SDS011;1107;48.654;9.250;2023-06-01T07:29:34;6.30;;;5.90;;
2201;SDS011;1107;48.654;9.250;2023-06-01T07:32:01;9.00;;;6.53;;
2201;SDS011;1107;48.654;9.250;2023-06-01T07:34:28;7.60;;;6.90;;
2201;SDS011;1107;48.654;9.250;2023-06-01T07:36:55;15.20;;;7.17;;
2201;SDS011;1107;48.654;9.250;2023-06-01T07:39:24;12.90;;;6.90;;
2201;SDS011;1107;48.654;9.250;2023-06-01T07:41:51;20.53;;;7.20;;
2201;SDS011;1107;48.654;9.250;2023-06-01T07:44:19;7.13;;;6.33;;
2201;SDS011;1107;48.654;9.250;2023-06-01T07:46:47;6.60;;;6.00;;
2201;SDS011;1107;48.654;9.250;2023-06-01T07:49:14;6.70;;;6.10;;
2201;SDS011;1107;48.654;9.250;2023-06-01T07:51:42;7.43;;;6.63;;
2201;SDS011;1107;48.654;9.250;2023-06-01T07:54:09;6.70;;;6.33;;
2201;SDS011;1107;48.654;9.250;2023-06-01T07:56:36;6.50;;;6.10;;
2201;SDS011;1107;48.654;9.250;2023-06-01T07:59:04;6.10;;;5.70;;
2201;SDS011;1107;48.654;9.250;2023-06-01T08:01:31;7.03;;;6.37;;
2201;SDS011;1107;48.654;9.250;2023-06-01T08:04:00;6.70;;;6.40;;
2201;SDS011;1107;48.654;9.250;2023-06-01T08:06:28;6.67;;;6.30;;
2201;SDS011;1107;48.654;9.250;2023-06-01T08:09:00;6.90;;;6.17;;
2201;SDS011;1107;48.654;9.250;2023-06-01T08:11:28;7.27;;;6.60;;
2201;SDS011;1107;48.654;9.250;2023-06-01T08:13:55;7.80;;;7.10;;
2201;SDS011;1107;48.654;9.250;2023-06-01T08:16:24;7.83;;;7.20;;
2201;SDS011;1107;48.654;9.250;2023-06-01T08:18:52;9.03;;;8.27;;
2201;SDS011;1107;48.654;9.250;2023-06-01T08:21:22;11.80;;;6.70;;
2201;SDS011;1107;48.654;9.250;2023-06-01T08:23:50;6.70;;;6.30;;
2201;SDS011;1107;48.654;9.250;2023-06-01T08:26:17;7.17;;;6.60;;
2201;SDS011;1107;48.654;9.250;2023-06-01T08:28:45;6.77;;;6.47;;
2201;SDS011;1107;48.654;9.250;2023-06-01T08:31:16;7.57;;;6.83;;
2201;SDS011;1107;48.654;9.250;2023-06-01T08:33:43;6.97;;;6.47;;
2201;SDS011;1107;48.654;9.250;2023-06-01T08:36:11;7.43;;;6.47;;
2201;SDS011;1107;48.654;9.250;2023-06-01T08:38:39;6.90;;;6.40;;
2201;SDS011;1107;48.654;9.250;2023-06-01T08:41:10;7.17;;;6.10;;
2201;SDS011;1107;48.654;9.250;2023-06-01T08:43:43;7.90;;;7.10;;
2201;SDS011;1107;48.654;9.250;2023-06-01T08:46:11;6.67;;;6.10;;
2201;SDS011;1107;48.654;9.250;2023-06-01T08:48:39;7.27;;;6.77;;
2201;SDS011;1107;48.654;9.250;2023-06-01T08:51:08;6.53;;;6.23;;
2201;SDS011;1107;48.654;9.250;2023-06-01T08:53:36;6.50;;;6.20;;
2201;SDS011;1107;48.654;9.250;2023-06-01T08:56:07;6.93;;;6.63;;
2201;SDS011;1107;48.654;9.250;2023-06-01T08:58:35;6.50;;;6.17;;
2201;SDS011;1107;48.654;9.250;2023-06-01T09:01:02;7.47;;;6.97;;
2201;SDS011;1107;48.654;9.250;2023-06-01T09:03:30;6.87;;;6.37;;
2201;SDS011;1107;48.654;9.250;2023-06-01T09:05:57;7.07;;;6.47;;
2201;SDS011;1107;48.654;9.250;2023-06-01T09:08:24;7.03;;;6.30;;
2201;SDS011;1107;48.654;9.250;2023-06-01T09:10:52;6.60;;;6.20;;
2201;SDS011;1107;48.654;9.250;2023-06-01T09:13:32;7.47;;;6.93;;
2201;SDS011;1107;48.654;9.250;2023-06-01T09:16:00;9.07;;;6.57;;
2201;SDS011;1107;48.654;9.250;2023-06-01T09:18:27;6.43;;;6.10;;
2201;SDS011;1107;48.654;9.250;2023-06-01T09:20:54;7.10;;;6.50;;
2201;SDS011;1107;48.654;9.250;2023-06-01T09:23:25;7.40;;;6.77;;
2201;SDS011;1107;48.654;9.250;2023-06-01T09:26:06;6.63;;;6.30;;
2201;SDS011;1107;48.654;9.250;2023-06-01T09:28:56;7.97;;;6.10;;
2201;SDS011;1107;48.654;9.250;2023-06-01T09:31:36;9.30;;;6.43;;
2201;SDS011;1107;48.654;9.250;2023-06-01T09:34:05;8.30;;;6.90;;
2201;SDS011;1107;48.654;9.250;2023-06-01T09:36:32;6.90;;;6.50;;
2201;SDS011;1107;48.654;9.250;2023-06-01T09:39:01;7.30;;;6.60;;
2201;SDS011;1107;48.654;9.250;2023-06-01T09:41:50;6.80;;;6.40;;
2201;SDS011;1107;48.654;9.250;2023-06-01T09:44:27;6.57;;;6.27;;
2201;SDS011;1107;48.654;9.250;2023-06-01T09:46:56;7.00;;;6.60;;
2201;SDS011;1107;48.654;9.250;2023-06-01T09:49:24;7.60;;;6.20;;
2201;SDS011;1107;48.654;9.250;2023-06-01T09:51:52;6.70;;;6.20;;
2201;SDS011;1107;48.654;9.250;2023-06-01T09:54:22;6.80;;;6.40;;
2201;SDS011;1107;48.654;9.250;2023-06-01T09:56:52;6.87;;;6.20;;
2201;SDS011;1107;48.654;9.250;2023-06-01T09:59:20;6.80;;;6.40;;
2201;SDS011;1107;48.654;9.250;2023-06-01T10:01:49;7.03;;;6.63;;
2201;SDS011;1107;48.654;9.250;2023-06-01T10:04:18;9.40;;;6.80;;
2201;SDS011;1107;48.654;9.250;2023-06-01T10:06:48;6.00;;;5.73;;
2201;SDS011;1107;48.654;9.250;2023-06-01T10:09:17;6.80;;;6.40;;
2201;SDS011;1107;48.654;9.250;2023-06-01T10:11:46;7.60;;;6.90;;
2201;SDS011;1107;48.654;9.250;2023-06-01T10:14:15;8.00;;;7.40;;
2201;SDS011;1107;48.654;9.250;2023-06-01T10:16:42;6.83;;;6.43;;
2201;SDS011;1107;48.654;9.250;2023-06-01T10:19:10;7.67;;;7.07;;
2201;SDS011;1107;48.654;9.250;2023-06-01T10:21:38;6.97;;;6.47;;
2201;SDS011;1107;48.654;9.250;2023-06-01T10:24:07;7.17;;;6.70;;
2201;SDS011;1107;48.654;9.250;2023-06-01T10:26:38;8.70;;;7.17;;
2201;SDS011;1107;48.654;9.250;2023-06-01T10:29:10;10.63;;;7.30;;
2201;SDS011;1107;48.654;9.250;2023-06-01T10:31:40;7.50;;;7.03;;
2201;SDS011;1107;48.654;9.250;2023-06-01T10:34:08;7.70;;;7.10;;
2201;SDS011;1107;48.654;9.250;2023-06-01T10:39:41;6.93;;;6.63;;
2201;SDS011;1107;48.654;9.250;2023-06-01T10:45:01;7.33;;;6.83;;
2201;SDS011;1107;48.654;9.250;2023-06-01T10:47:46;7.77;;;7.27;;
2201;SDS011;1107;48.654;9.250;2023-06-01T10:50:17;8.07;;;7.40;;
2201;SDS011;1107;48.654;9.250;2023-06-01T10:52:47;8.10;;;7.70;;
2201;SDS011;1107;48.654;9.250;2023-06-01T10:55:21;7.37;;;6.77;;
2201;SDS011;1107;48.654;9.250;2023-06-01T10:57:49;7.50;;;7.00;;
2201;SDS011;1107;48.654;9.250;2023-06-01T11:00:17;8.40;;;6.93;;
2201;SDS011;1107;48.654;9.250;2023-06-01T11:02:49;9.73;;;7.20;;
2201;SDS011;1107;48.654;9.250;2023-06-01T11:05:33;6.73;;;6.43;;
2201;SDS011;1107;48.654;9.250;2023-06-01T11:11:21;7.43;;;7.03;;
2201;SDS011;1107;48.654;9.250;2023-06-01T11:16:36;7.30;;;6.70;;
2201;SDS011;1107;48.654;9.250;2023-06-01T11:19:05;7.53;;;7.03;;
2201;SDS011;1107;48.654;9.250;2023-06-01T11:21:34;6.73;;;6.33;;
2201;SDS011;1107;48.654;9.250;2023-06-01T11:24:05;7.87;;;7.37;;
2201;SDS011;1107;48.654;9.250;2023-06-01T11:26:38;7.57;;;7.10;;
2201;SDS011;1107;48.654;9.250;2023-06-01T11:29:07;8.27;;;7.67;;
2201;SDS011;1107;48.654;9.250;2023-06-01T11:31:38;8.93;;;7.03;;
2201;SDS011;1107;48.654;9.250;2023-06-01T11:34:08;7.13;;;6.63;;
2201;SDS011;1107;48.654;9.250;2023-06-01T11:36:37;7.70;;;7.30;;
2201;SDS011;1107;48.654;9.250;2023-06-01T11:39:05;7.20;;;6.70;;
2201;SDS011;1107;48.654;9.250;2023-06-01T11:41:42;7.87;;;7.20;;
2201;SDS011;1107;48.654;9.250;2023-06-01T11:44:09;7.10;;;6.50;;
2201;SDS011;1107;48.654;9.250;2023-06-01T11:46:36;6.53;;;6.23;;
2201;SDS011;1107;48.654;9.250;2023-06-01T11:49:03;7.53;;;7.00;;
2201;SDS011;1107;48.654;9.250;2023-06-01T11:51:37;6.90;;;6.50;;
2201;SDS011;1107;48.654;9.250;2023-06-01T11:54:06;6.60;;;6.30;;
2201;SDS011;1107;48.654;9.250;2023-06-01T11:56:34;7.23;;;6.50;;
2201;SDS011;1107;48.654;9.250;2023-06-01T11:59:04;6.90;;;6.50;;
2201;SDS011;1107;48.654;9.250;2023-06-01T12:01:34;6.93;;;6.53;;
2201;SDS011;1107;48.654;9.250;2023-06-01T12:04:02;6.53;;;6.13;;
2201;SDS011;1107;48.654;9.250;2023-06-01T12:06:34;6.50;;;6.10;;
2201;SDS011;1107;48.654;9.250;2023-06-01T12:09:01;6.77;;;6.20;;
2201;SDS011;1107;48.654;9.250;2023-06-01T12:11:31;6.90;;;6.30;;
2201;SDS011;1107;48.654;9.250;2023-06-01T12:13:59;7.43;;;6.93;;
2201;SDS011;1107;48.654;9.250;2023-06-01T12:19:19;6.90;;;6.43;;
2201;SDS011;1107;48.654;9.250;2023-06-01T12:21:48;7.23;;;6.80;;
2201;SDS011;1107;48.654;9.250;2023-06-01T12:24:17;7.13;;;6.60;;
2201;SDS011;1107;48.654;9.250;2023-06-01T12:26:44;7.10;;;6.80;;
2201;SDS011;1107;48.654;9.250;2023-06-01T12:29:11;7.10;;;6.67;;
2201;SDS011;1107;48.654;9.250;2023-06-01T12:31:38;6.80;;;6.40;;
2201;SDS011;1107;48.654;9.250;2023-06-01T12:34:14;6.80;;;6.40;;
2201;SDS011;1107;48.654;9.250;2023-06-01T12:36:42;6.87;;;6.23;;
2201;SDS011;1107;48.654;9.250;2023-06-01T12:39:11;6.70;;;6.20;;
2201;SDS011;1107;48.654;9.250;2023-06-01T12:41:46;5.77;;;5.50;;
2201;SDS011;1107;48.654;9.250;2023-06-01T12:44:19;12.43;;;6.60;;
2201;SDS011;1107;48.654;9.250;2023-06-01T12:46:46;7.10;;;6.70;;
2201;SDS011;1107;48.654;9.250;2023-06-01T12:49:13;6.77;;;6.27;;
2201;SDS011;1107;48.654;9.250;2023-06-01T12:51:42;7.50;;;7.03;;
2201;SDS011;1107;48.654;9.250;2023-06-01T12:54:11;9.03;;;6.30;;
2201;SDS011;1107;48.654;9.250;2023-06-01T12:56:39;7.73;;;7.20;;
2201;SDS011;1107;48.654;9.250;2023-06-01T12:59:06;9.93;;;7.37;;
2201;SDS011;1107;48.654;9.250;2023-06-01T13:01:33;7.40;;;6.70;;
2201;SDS011;1107;48.654;9.250;2023-06-01T13:04:00;6.87;;;6.40;;
2201;SDS011;1107;48.654;9.250;2023-06-01T13:06:28;7.47;;;6.97;;
2201;SDS011;1107;48.654;9.250;2023-06-01T13:08:55;8.27;;;7.00;;
2201;SDS011;1107;48.654;9.250;2023-06-01T13:11:24;6.77;;;6.40;;
2201;SDS011;1107;48.654;9.250;2023-06-01T13:13:52;6.90;;;6.40;;
2201;SDS011;1107;48.654;9.250;2023-06-01T13:16:20;7.37;;;6.73;;
2201;SDS011;1107;48.654;9.250;2023-06-01T13:18:47;8.97;;;6.53;;
2201;SDS011;1107;48.654;9.250;2023-06-01T13:21:16;6.90;;;6.50;;
2201;SDS011;1107;48.654;9.250;2023-06-01T13:23:43;7.13;;;6.77;;
2201;SDS011;1107;48.654;9.250;2023-06-01T13:26:10;7.27;;;6.83;;
2201;SDS011;1107;48.654;9.250;2023-06-01T13:28:38;7.70;;;7.07;;
2201;SDS011;1107;48.654;9.250;2023-06-01T13:31:05;7.03;;;6.63;;
2201;SDS011;1107;48.654;9.250;2023-06-01T13:33:32;8.90;;;7.07;;
2201;SDS011;1107;48.654;9.250;2023-06-01T13:35:59;7.33;;;6.83;;
2201;SDS011;1107;48.654;9.250;2023-06-01T13:38:26;6.97;;;6.60;;
2201;SDS011;1107;48.654;9.250;2023-06-01T13:40:53;7.63;;;7.00;;
2201;SDS011;1107;48.654;9.250;2023-06-01T13:43:21;7.57;;;7.17;;
2201;SDS011;1107;48.654;9.250;2023-06-01T13:45:50;13.37;;;7.40;;
2201;SDS011;1107;48.654;9.250;2023-06-01T13:48:17;7.80;;;7.17;;
2201;SDS011;1107;48.654;9.250;2023-06-01T13:50:44;6.47;;;6.17;;
2201;SDS011;1107;48.654;9.250;2023-06-01T13:53:11;6.43;;;6.13;;
2201;SDS011;1107;48.654;9.250;2023-06-01T13:55:38;7.20;;;6.70;;
2201;SDS011;1107;48.654;9.250;2023-06-01T13:58:05;7.77;;;7.17;;
2201;SDS011;1107;48.654;9.250;2023-06-01T14:00:32;7.23;;;6.83;;
2201;SDS011;1107;48.654;9.250;2023-06-01T14:03:00;6.77;;;6.40;;
2201;SDS011;1107;48.654;9.250;2023-06-01T14:05:27;7.87;;;7.27;;
2201;SDS011;1107;48.654;9.250;2023-06-01T14:07:54;7.37;;;6.77;;
2201;SDS011;1107;48.654;9.250;2023-06-01T14:10:22;8.83;;;6.93;;
2201;SDS011;1107;48.654;9.250;2023-06-01T14:12:49;12.27;;;6.77;;
2201;SDS011;1107;48.654;9.250;2023-06-01T14:15:16;6.87;;;6.50;;
2201;SDS011;1107;48.654;9.250;2023-06-01T14:17:43;6.63;;;6.07;;
2201;SDS011;1107;48.654;9.250;2023-06-01T14:20:11;7.10;;;6.60;;
2201;SDS011;1107;48.654;9.250;2023-06-01T14:22:38;6.73;;;6.30;;
2201;SDS011;1107;48.654;9.250;2023-06-01T14:25:05;12.83;;;6.40;;
2201;SDS011;1107;48.654;9.250;2023-06-01T14:27:33;6.70;;;6.17;;
2201;SDS011;1107;48.654;9.250;2023-06-01T14:30:02;5.97;;;5.67;;
2201;SDS011;1107;48.654;9.250;2023-06-01T14:32:30;6.83;;;6.33;;
2201;SDS011;1107;48.654;9.250;2023-06-01T14:34:57;8.93;;;7.00;;
2201;SDS011;1107;48.654;9.250;2023-06-01T14:37:25;6.57;;;6.03;;
2201;SDS011;1107;48.654;9.250;2023-06-01T14:39:52;6.50;;;6.17;;
2201;SDS011;1107;48.654;9.250;2023-06-01T14:42:19;7.00;;;6.60;;
2201;SDS011;1107;48.654;9.250;2023-06-01T14:44:46;6.80;;;6.50;;
2201;SDS011;1107;48.654;9.250;2023-06-01T14:47:13;6.47;;;6.17;;
2201;SDS011;1107;48.654;9.250;2023-06-01T14:49:40;7.17;;;6.50;;
2201;SDS011;1107;48.654;9.250;2023-06-01T14:52:07;6.70;;;6.30;;
2201;SDS011;1107;48.654;9.250;2023-06-01T14:54:36;6.70;;;6.20;;
2201;SDS011;1107;48.654;9.250;2023-06-01T14:57:03;6.80;;;6.40;;
2201;SDS011;1107;48.654;9.250;2023-06-01T14:59:30;6.23;;;5.93;;
2201;SDS011;1107;48.654;9.250;2023-06-01T15:01:58;6.27;;;5.97;;
2201;SDS011;1107;48.654;9.250;2023-06-01T15:04:26;10.97;;;5.50;;
2201;SDS011;1107;48.654;9.250;2023-06-01T15:06:53;5.77;;;5.47;;
2201;SDS011;1107;48.654;9.250;2023-06-01T15:09:20;7.00;;;6.40;;
2201;SDS011;1107;48.654;9.250;2023-06-01T15:11:48;6.50;;;5.30;;
2201;SDS011;1107;48.654;9.250;2023-06-01T15:14:15;6.00;;;5.67;;
2201;SDS011;1107;48.654;9.250;2023-06-01T15:16:43;6.10;;;5.80;;
2201;SDS011;1107;48.654;9.250;2023-06-01T15:19:10;7.50;;;5.47;;
2201;SDS011;1107;48.654;9.250;2023-06-01T15:21:37;7.00;;;5.23;;
2201;SDS011;1107;48.654;9.250;2023-06-01T15:24:04;5.13;;;4.93;;
2201;SDS011;1107;48.654;9.250;2023-06-01T15:26:31;5.20;;;5.00;;
2201;SDS011;1107;48.654;9.250;2023-06-01T15:28:59;10.43;;;5.90;;
2201;SDS011;1107;48.654;9.250;2023-06-01T15:31:26;5.43;;;4.90;;
2201;SDS011;1107;48.654;9.250;2023-06-01T15:33:53;9.47;;;5.10;;
2201;SDS011;1107;48.654;9.250;2023-06-01T15:36:20;7.80;;;5.23;;
2201;SDS011;1107;48.654;9.250;2023-06-01T15:38:47;5.80;;;5.40;;